createdAt,value
2018-12-25T00:00:13.346Z,5.10
2018-12-25T00:02:44.177Z,5.10
2018-12-25T00:05:14.008Z,5.10
2018-12-25T00:07:44.148Z,5.10
2018-12-25T00:10:14.232Z,5.10
2018-12-25T00:12:43.999Z,5.10
2018-12-25T00:15:13.975Z,5.10
2018-12-25T00:17:44.340Z,5.10
2018-12-25T00:20:14.218Z,5.10
2018-12-25T00:22:44.339Z,5.10
2018-12-25T00:25:14.229Z,5.10
2018-12-25T00:27:43.977Z,5.10
2018-12-25T00:30:13.877Z,5.10
2018-12-25T00:32:43.768Z,5.10
2018-12-25T00:35:13.614Z,5.10
2018-12-25T00:37:43.451Z,5.10
2018-12-25T00:40:13.293Z,5.20
2018-12-25T00:42:43.675Z,5.20
2018-12-25T00:45:13.749Z,5.20
2018-12-25T00:47:43.605Z,5.20
2018-12-25T00:50:13.348Z,5.20
2018-12-25T00:52:43.072Z,5.20
2018-12-25T00:55:12.959Z,5.30
2018-12-25T00:57:42.711Z,5.20
2018-12-25T01:00:12.584Z,5.20
2018-12-25T01:02:42.587Z,5.30
2018-12-25T01:05:12.455Z,5.30
2018-12-25T01:07:42.268Z,5.20
2018-12-25T01:10:12.036Z,5.30
2018-12-25T01:12:41.858Z,5.30
2018-12-25T01:15:11.557Z,5.30
2018-12-25T01:17:41.382Z,5.30
2018-12-25T01:20:11.452Z,5.30
2018-12-25T01:22:41.228Z,5.30
2018-12-25T01:25:10.972Z,5.30
2018-12-25T01:27:40.738Z,5.30
2018-12-25T01:30:10.525Z,5.30
2018-12-25T01:32:40.236Z,5.20
2018-12-25T01:35:09.929Z,5.30
2018-12-25T01:37:39.792Z,5.30
2018-12-25T01:40:10.006Z,5.30
2018-12-25T01:42:39.805Z,5.30
2018-12-25T01:45:09.877Z,5.30
2018-12-25T01:47:39.667Z,5.30
2018-12-25T01:50:09.846Z,5.30
2018-12-25T01:52:39.720Z,5.30
2018-12-25T01:55:09.588Z,5.30
2018-12-25T01:57:39.336Z,5.20
2018-12-25T02:00:09.233Z,5.30
2018-12-25T02:02:39.426Z,5.30
2018-12-25T02:05:09.135Z,5.30
2018-12-25T02:07:38.906Z,5.30
2018-12-25T02:10:08.603Z,5.30
2018-12-25T02:12:38.417Z,5.30
2018-12-25T02:15:08.295Z,5.30
2018-12-25T02:17:38.020Z,5.30
2018-12-25T02:20:07.928Z,5.30
2018-12-25T02:22:41.400Z,5.30
2018-12-25T02:25:11.163Z,5.30
2018-12-25T02:27:40.973Z,5.30
2018-12-25T02:30:10.792Z,5.30
2018-12-25T02:32:40.606Z,5.30
2018-12-25T02:35:10.389Z,5.30
2018-12-25T02:37:40.233Z,5.20
2018-12-25T02:40:10.097Z,5.20
2018-12-25T02:42:39.946Z,5.20
2018-12-25T02:45:09.677Z,5.20
2018-12-25T02:47:39.443Z,5.30
2018-12-25T02:50:09.216Z,5.30
2018-12-25T02:52:39.152Z,5.20
2018-12-25T02:55:09.027Z,5.20
2018-12-25T02:57:38.798Z,5.20
2018-12-25T03:00:08.970Z,5.20
2018-12-25T03:02:38.864Z,5.20
2018-12-25T03:05:08.805Z,5.20
2018-12-25T03:07:38.572Z,5.20
2018-12-25T03:10:08.930Z,5.20
2018-12-25T03:12:38.883Z,5.20
2018-12-25T03:15:09.071Z,5.20
2018-12-25T03:17:38.846Z,5.20
2018-12-25T03:20:08.775Z,5.20
2018-12-25T03:22:38.615Z,5.20
2018-12-25T03:25:08.457Z,5.20
2018-12-25T03:27:38.267Z,5.20
2018-12-25T03:30:08.147Z,5.20
2018-12-25T03:32:40.495Z,5.20
2018-12-25T03:35:10.384Z,5.20
2018-12-25T03:37:40.104Z,5.10
2018-12-25T03:40:09.943Z,5.10
2018-12-25T03:42:39.672Z,5.20
2018-12-25T03:45:09.413Z,5.10
2018-12-25T03:47:39.205Z,5.10
2018-12-25T03:50:10.795Z,5.10
2018-12-25T03:52:40.697Z,5.10
2018-12-25T03:55:10.490Z,5.10
2018-12-25T03:57:40.557Z,5.10
2018-12-25T04:00:10.447Z,5.20
2018-12-25T04:02:40.377Z,5.20
2018-12-25T04:05:10.199Z,5.10
2018-12-25T04:07:40.033Z,5.10
2018-12-25T04:10:09.877Z,5.20
2018-12-25T04:12:39.608Z,5.20
2018-12-25T04:15:09.334Z,5.20
2018-12-25T04:17:39.209Z,5.20
2018-12-25T04:20:09.377Z,5.10
2018-12-25T04:22:39.207Z,5.10
2018-12-25T04:25:09.962Z,5.10
2018-12-25T04:27:39.827Z,5.20
2018-12-25T04:30:09.636Z,5.10
2018-12-25T04:32:39.528Z,5.10
2018-12-25T04:35:09.310Z,5.10
2018-12-25T04:37:39.525Z,5.10
2018-12-25T04:40:09.358Z,5.10
2018-12-25T04:42:39.114Z,5.10
2018-12-25T04:45:08.853Z,5.10
2018-12-25T04:47:38.658Z,5.20
2018-12-25T04:50:08.567Z,5.10
2018-12-25T04:52:38.301Z,5.10
2018-12-25T04:55:08.026Z,5.10
2018-12-25T04:57:37.777Z,5.20
2018-12-25T05:00:07.856Z,5.20
2018-12-25T05:02:37.765Z,5.20
2018-12-25T05:05:07.536Z,5.20
2018-12-25T05:07:37.332Z,5.20
2018-12-25T05:10:07.275Z,5.20
2018-12-25T05:12:37.184Z,5.20
2018-12-25T05:15:07.133Z,5.20
2018-12-25T05:17:36.933Z,5.20
2018-12-25T05:20:06.836Z,5.20
2018-12-25T05:22:36.652Z,5.20
2018-12-25T05:25:06.533Z,5.20
2018-12-25T05:27:36.425Z,5.20
2018-12-25T05:30:06.465Z,5.20
2018-12-25T05:32:36.252Z,5.20
2018-12-25T05:35:06.132Z,5.20
2018-12-25T05:37:35.999Z,5.20
2018-12-25T05:40:06.026Z,5.20
2018-12-25T05:42:36.835Z,5.20
2018-12-25T05:45:06.808Z,5.20
2018-12-25T05:47:36.739Z,5.20
2018-12-25T05:50:06.894Z,5.20
2018-12-25T05:52:36.545Z,5.20
2018-12-25T05:55:06.469Z,5.20
2018-12-25T05:57:36.309Z,5.20
2018-12-25T06:00:07.112Z,5.20
2018-12-25T06:02:36.853Z,5.20
2018-12-25T06:05:07.656Z,5.20
2018-12-25T06:07:37.371Z,5.20
2018-12-25T06:10:07.134Z,5.20
2018-12-25T06:12:36.919Z,5.20
2018-12-25T06:15:06.796Z,5.20
2018-12-25T06:17:36.533Z,5.20
2018-12-25T06:20:06.405Z,5.20
2018-12-25T06:22:36.339Z,5.20
2018-12-25T06:25:06.142Z,5.20
2018-12-25T06:27:36.525Z,5.20
2018-12-25T06:30:06.600Z,5.20
2018-12-25T06:32:36.377Z,5.20
2018-12-25T06:35:06.264Z,5.20
2018-12-25T06:37:36.082Z,5.10
2018-12-25T06:40:06.473Z,5.20
2018-12-25T06:42:36.288Z,5.10
2018-12-25T06:45:06.065Z,5.10
2018-12-25T06:47:36.025Z,5.20
2018-12-25T06:50:05.967Z,5.20
2018-12-25T06:52:35.821Z,5.20
2018-12-25T06:55:05.726Z,5.20
2018-12-25T06:57:35.597Z,5.20
2018-12-25T07:00:07.081Z,5.20
2018-12-25T07:02:37.011Z,5.20
2018-12-25T07:05:06.764Z,5.20
2018-12-25T07:07:36.609Z,5.20
2018-12-25T07:10:06.931Z,5.20
2018-12-25T07:12:36.649Z,5.20
2018-12-25T07:15:07.958Z,5.30
2018-12-25T07:17:38.083Z,5.20
2018-12-25T07:20:08.117Z,5.20
2018-12-25T07:22:37.979Z,5.20
2018-12-25T07:25:07.819Z,5.30
2018-12-25T07:27:37.768Z,5.20
2018-12-25T07:30:07.722Z,5.30
2018-12-25T07:32:37.601Z,5.20
2018-12-25T07:35:07.364Z,5.20
2018-12-25T07:37:37.167Z,5.20
2018-12-25T07:40:07.017Z,5.20
2018-12-25T07:42:37.651Z,5.20
2018-12-25T07:45:07.421Z,5.30
2018-12-25T07:47:37.780Z,5.30
2018-12-25T07:50:08.144Z,5.20
2018-12-25T07:52:37.907Z,5.20
2018-12-25T07:55:07.809Z,5.20
2018-12-25T07:57:37.705Z,5.20
2018-12-25T08:00:07.853Z,5.20
2018-12-25T08:02:37.635Z,5.20
2018-12-25T08:05:07.437Z,5.20
2018-12-25T08:07:37.208Z,5.30
2018-12-25T08:10:07.002Z,5.30
2018-12-25T08:12:36.701Z,5.30
2018-12-25T08:15:06.591Z,5.30
2018-12-25T08:17:36.335Z,4.70
2018-12-25T08:20:06.898Z,5.30
2018-12-25T08:22:36.754Z,5.30
2018-12-25T08:25:06.800Z,5.30
2018-12-25T08:27:36.703Z,5.80
2018-12-25T08:30:06.601Z,5.30
2018-12-25T08:32:37.418Z,5.40
2018-12-25T08:35:07.276Z,5.40
2018-12-25T08:37:36.989Z,5.50
2018-12-25T08:40:07.179Z,5.50
2018-12-25T08:42:36.858Z,5.50
2018-12-25T08:45:07.322Z,5.50
2018-12-25T08:47:37.061Z,5.50
2018-12-25T08:50:08.849Z,5.60
2018-12-25T08:52:38.874Z,5.60
2018-12-25T08:55:08.576Z,5.70
2018-12-25T08:57:38.355Z,5.70
2018-12-25T09:00:11.055Z,5.70
2018-12-25T09:02:40.951Z,5.80
2018-12-25T09:05:10.671Z,5.70
2018-12-25T09:07:40.510Z,5.70
2018-12-25T09:10:10.342Z,5.70
2018-12-25T09:12:40.189Z,5.70
2018-12-25T09:15:10.105Z,5.80
2018-12-25T09:17:39.937Z,5.80
2018-12-25T09:20:09.631Z,5.80
2018-12-25T09:22:39.434Z,5.90
2018-12-25T09:25:10.776Z,6.00
2018-12-25T09:27:40.644Z,6.00
2018-12-25T09:30:10.892Z,6.00
2018-12-25T09:32:40.675Z,6.10
2018-12-25T09:35:10.590Z,6.20
2018-12-25T09:37:40.549Z,6.40
2018-12-25T09:40:10.597Z,6.50
2018-12-25T09:42:40.402Z,6.40
2018-12-25T09:45:10.222Z,6.40
2018-12-25T09:47:42.784Z,6.40
2018-12-25T09:50:12.649Z,6.60
2018-12-25T09:52:42.584Z,7.50
2018-12-25T09:55:12.425Z,8.10
2018-12-25T09:57:42.249Z,8.00
2018-12-25T10:00:12.165Z,7.70
2018-12-25T10:02:42.760Z,7.70
2018-12-25T10:05:12.437Z,7.80
2018-12-25T10:07:42.817Z,7.70
2018-12-25T10:10:12.730Z,7.50
2018-12-25T10:12:42.492Z,7.40
2018-12-25T10:15:12.844Z,7.40
2018-12-25T10:17:42.640Z,7.30
2018-12-25T10:20:12.510Z,7.40
2018-12-25T10:22:42.303Z,7.40
2018-12-25T10:25:12.078Z,7.50
2018-12-25T10:27:41.772Z,7.60
2018-12-25T10:30:11.509Z,7.80
2018-12-25T10:32:41.449Z,8.00
2018-12-25T10:35:11.448Z,8.00
2018-12-25T10:37:41.248Z,7.90
2018-12-25T10:40:11.215Z,7.90
2018-12-25T10:42:40.954Z,7.80
2018-12-25T10:45:10.902Z,7.70
2018-12-25T10:47:40.679Z,7.70
2018-12-25T10:50:10.609Z,7.60
2018-12-25T10:52:40.509Z,7.70
2018-12-25T10:55:10.432Z,7.60
2018-12-25T10:57:40.220Z,7.70
2018-12-25T11:00:12.359Z,8.10
2018-12-25T11:02:42.114Z,8.00
2018-12-25T11:05:11.975Z,7.80
2018-12-25T11:07:41.791Z,7.70
2018-12-25T11:10:11.564Z,7.70
2018-12-25T11:12:41.392Z,7.80
2018-12-25T11:15:12.284Z,7.80
2018-12-25T11:17:42.108Z,7.70
2018-12-25T11:20:11.913Z,7.70
2018-12-25T11:22:41.645Z,7.70
2018-12-25T11:25:11.421Z,7.70
2018-12-25T11:27:41.168Z,7.50
2018-12-25T11:30:10.957Z,7.50
2018-12-25T11:32:40.857Z,7.40
2018-12-25T11:35:10.770Z,7.40
2018-12-25T11:37:41.560Z,7.40
2018-12-25T11:40:11.554Z,7.40
2018-12-25T11:42:41.347Z,7.40
2018-12-25T11:45:11.215Z,7.30
2018-12-25T11:47:41.152Z,7.30
2018-12-25T11:50:11.288Z,7.30
2018-12-25T11:52:41.008Z,7.40
2018-12-25T11:55:10.919Z,7.30
2018-12-25T11:57:40.669Z,7.30
2018-12-25T12:00:10.465Z,7.40
2018-12-25T12:02:40.145Z,7.50
2018-12-25T12:05:09.935Z,7.40
2018-12-25T12:07:39.683Z,7.40
2018-12-25T12:10:09.705Z,7.30
2018-12-25T12:12:39.563Z,7.30
2018-12-25T12:15:09.375Z,7.30
2018-12-25T12:17:39.878Z,7.30
2018-12-25T12:20:09.689Z,7.40
2018-12-25T12:22:39.441Z,7.40
2018-12-25T12:25:09.424Z,7.50
2018-12-25T12:27:40.234Z,7.60
2018-12-25T12:30:10.196Z,7.60
2018-12-25T12:32:40.517Z,7.70
2018-12-25T12:35:11.228Z,7.70
2018-12-25T12:37:41.076Z,7.60
2018-12-25T12:40:10.841Z,7.60
2018-12-25T12:42:40.613Z,7.70
2018-12-25T12:45:10.841Z,7.60
2018-12-25T12:47:40.599Z,7.50
2018-12-25T12:50:10.646Z,7.60
2018-12-25T12:52:45.374Z,7.50
2018-12-25T12:55:11.772Z,7.50
2018-12-25T12:57:41.614Z,7.40
2018-12-25T13:00:12.402Z,7.30
2018-12-25T13:02:42.173Z,7.40
2018-12-25T13:05:12.193Z,7.40
2018-12-25T13:07:42.021Z,7.40
2018-12-25T13:10:11.765Z,7.50
2018-12-25T13:12:41.526Z,7.50
2018-12-25T13:15:11.304Z,7.50
2018-12-25T13:17:42.173Z,7.40
2018-12-25T13:20:11.988Z,7.40
2018-12-25T13:22:42.771Z,7.50
2018-12-25T13:25:12.483Z,7.50
2018-12-25T13:27:42.412Z,7.50
2018-12-25T13:30:12.199Z,7.40
2018-12-25T13:32:41.910Z,7.40
2018-12-25T13:35:11.793Z,7.40
2018-12-25T13:37:41.620Z,7.40
2018-12-25T13:40:11.671Z,7.20
2018-12-25T13:42:41.715Z,7.20
2018-12-25T13:45:11.516Z,7.20
2018-12-25T13:47:41.600Z,7.20
2018-12-25T13:50:11.471Z,7.10
2018-12-25T13:52:41.223Z,7.00
2018-12-25T13:55:11.145Z,7.00
2018-12-25T13:57:40.954Z,7.00
2018-12-25T14:00:10.844Z,6.90
2018-12-25T14:02:40.657Z,7.00
2018-12-25T14:05:10.391Z,6.90
2018-12-25T14:07:40.136Z,6.90
2018-12-25T14:10:10.311Z,6.90
2018-12-25T14:12:40.097Z,6.90
2018-12-25T14:15:09.964Z,6.90
2018-12-25T14:17:39.798Z,6.90
2018-12-25T14:20:09.492Z,6.80
2018-12-25T14:22:39.618Z,6.70
2018-12-25T14:25:09.384Z,6.70
2018-12-25T14:27:39.546Z,6.70
2018-12-25T14:30:10.019Z,6.60
2018-12-25T14:32:39.817Z,6.50
2018-12-25T14:35:09.626Z,6.50
2018-12-25T14:37:39.423Z,6.50
2018-12-25T14:40:09.213Z,6.40
2018-12-25T14:42:38.928Z,6.30
2018-12-25T14:45:08.711Z,6.30
2018-12-25T14:47:38.536Z,6.30
2018-12-25T14:50:08.709Z,6.20
2018-12-25T14:52:38.440Z,6.30
2018-12-25T14:55:08.755Z,6.30
2018-12-25T14:57:38.689Z,6.30
2018-12-25T15:00:09.569Z,6.20
2018-12-25T15:02:39.344Z,6.20
2018-12-25T15:05:09.187Z,6.20
2018-12-25T15:07:38.942Z,6.10
2018-12-25T15:10:08.785Z,6.10
2018-12-25T15:12:38.558Z,6.00
2018-12-25T15:15:08.429Z,6.00
2018-12-25T15:17:38.265Z,6.00
2018-12-25T15:20:08.310Z,5.90
2018-12-25T15:22:40.556Z,6.00
2018-12-25T15:25:10.007Z,5.90
2018-12-25T15:27:39.709Z,5.90
2018-12-25T15:30:09.486Z,5.90
2018-12-25T15:32:59.959Z,5.80
2018-12-25T15:35:29.703Z,5.80
2018-12-25T15:37:59.442Z,5.80
2018-12-25T15:40:29.140Z,5.80
2018-12-25T15:42:58.985Z,5.80
2018-12-25T15:45:28.787Z,5.80
2018-12-25T15:47:58.691Z,5.80
2018-12-25T15:50:28.533Z,5.80
2018-12-25T15:52:58.373Z,5.80
2018-12-25T15:55:28.100Z,5.80
2018-12-25T15:57:57.852Z,5.80
2018-12-25T16:00:27.789Z,5.70
2018-12-25T16:02:57.501Z,5.80
2018-12-25T16:05:27.315Z,5.80
2018-12-25T16:07:57.078Z,5.80
2018-12-25T16:10:27.123Z,5.70
2018-12-25T16:12:57.005Z,5.70
2018-12-25T16:15:26.862Z,5.70
2018-12-25T16:17:56.558Z,5.70
2018-12-25T16:20:26.288Z,5.70
2018-12-25T16:22:56.066Z,5.70
2018-12-25T16:25:26.801Z,5.70
2018-12-25T16:27:56.704Z,5.70
2018-12-25T16:30:27.473Z,5.60
2018-12-25T16:32:57.187Z,5.60
2018-12-25T16:35:27.015Z,5.70
2018-12-25T16:37:56.775Z,5.60
2018-12-25T16:40:26.562Z,5.70
2018-12-25T16:42:56.392Z,5.60
2018-12-25T16:45:26.197Z,5.60
2018-12-25T16:47:56.092Z,5.60
2018-12-25T16:50:25.859Z,5.60
2018-12-25T16:52:55.798Z,5.60
2018-12-25T16:55:25.697Z,5.60
2018-12-25T16:57:55.422Z,5.60
2018-12-25T17:00:25.137Z,5.60
2018-12-25T17:02:54.880Z,5.50
2018-12-25T17:05:24.885Z,5.50
2018-12-25T17:07:54.672Z,5.50
2018-12-25T17:10:24.368Z,5.50
2018-12-25T17:12:54.139Z,5.50
2018-12-25T17:15:24.083Z,5.40
2018-12-25T17:17:53.844Z,5.50
2018-12-25T17:20:23.720Z,5.50
2018-12-25T17:22:53.457Z,5.40
2018-12-25T17:25:23.643Z,5.50
2018-12-25T17:27:53.381Z,5.40
2018-12-25T17:30:23.826Z,5.40
2018-12-25T17:32:55.527Z,5.40
2018-12-25T17:35:25.129Z,5.40
2018-12-25T17:37:54.899Z,5.40
2018-12-25T17:40:24.789Z,5.40
2018-12-25T17:42:54.598Z,5.40
2018-12-25T17:45:24.577Z,5.40
2018-12-25T17:47:54.361Z,5.30
2018-12-25T17:50:24.379Z,5.30
2018-12-25T17:52:54.299Z,5.30
2018-12-25T17:55:24.105Z,5.30
2018-12-25T17:57:53.817Z,5.20
2018-12-25T18:00:23.592Z,5.10
2018-12-25T18:02:53.678Z,5.10
2018-12-25T18:05:23.501Z,5.00
2018-12-25T18:07:53.329Z,5.00
2018-12-25T18:10:23.058Z,5.00
2018-12-25T18:12:52.934Z,5.00
2018-12-25T18:15:22.861Z,5.00
2018-12-25T18:17:52.745Z,5.00
2018-12-25T18:20:22.478Z,4.90
2018-12-25T18:22:52.311Z,4.90
2018-12-25T18:25:22.187Z,4.90
2018-12-25T18:27:52.077Z,4.90
2018-12-25T18:30:21.994Z,5.00
2018-12-25T18:32:51.760Z,5.00
2018-12-25T18:35:21.699Z,5.00
2018-12-25T18:37:51.513Z,5.00
2018-12-25T18:40:21.469Z,5.10
2018-12-25T18:42:52.675Z,5.00
2018-12-25T18:45:22.647Z,5.00
2018-12-25T18:47:52.399Z,5.00
2018-12-25T18:50:22.331Z,5.00
2018-12-25T18:52:55.045Z,5.00
2018-12-25T18:55:25.073Z,5.00
2018-12-25T18:57:55.254Z,5.00
2018-12-25T19:00:24.919Z,5.00
2018-12-25T19:02:54.931Z,5.00
2018-12-25T19:05:24.761Z,5.00
2018-12-25T19:07:54.647Z,5.00
2018-12-25T19:10:24.388Z,5.00
2018-12-25T19:12:54.830Z,5.00
2018-12-25T19:15:29.692Z,5.00
2018-12-25T19:18:00.393Z,5.00
2018-12-25T19:20:31.533Z,5.00
2018-12-25T19:23:01.767Z,5.00
2018-12-25T19:25:31.620Z,4.90
2018-12-25T19:28:01.549Z,4.90
2018-12-25T19:30:33.362Z,4.90
2018-12-25T19:33:03.534Z,4.90
2018-12-25T19:35:33.577Z,4.90
2018-12-25T19:38:03.365Z,4.90
2018-12-25T19:40:33.293Z,4.90
2018-12-25T19:43:03.062Z,4.90
2018-12-25T19:45:33.840Z,4.90
2018-12-25T19:48:03.669Z,4.90
2018-12-25T19:50:33.788Z,4.90
2018-12-25T19:53:04.058Z,4.90
2018-12-25T19:55:34.010Z,4.90
2018-12-25T19:58:03.912Z,4.90
2018-12-25T20:00:33.787Z,4.80
2018-12-25T20:03:10.626Z,4.90
2018-12-25T20:06:17.012Z,4.90
2018-12-25T20:09:22.540Z,4.90
2018-12-25T20:12:29.171Z,4.80
2018-12-25T20:15:55.657Z,4.80
2018-12-25T20:18:48.119Z,4.80
2018-12-25T20:21:40.136Z,4.70
2018-12-25T20:24:53.511Z,4.70
2018-12-25T20:27:59.442Z,4.60
2018-12-25T20:31:15.217Z,4.60
2018-12-25T20:34:28.477Z,4.60
2018-12-25T20:37:54.521Z,4.50
2018-12-25T20:41:16.734Z,4.50
2018-12-25T20:44:29.704Z,4.40
2018-12-25T20:47:52.870Z,4.30
2018-12-25T20:51:00.885Z,4.20
2018-12-25T20:54:09.996Z,4.20
2018-12-25T20:57:06.842Z,4.10
2018-12-25T21:00:21.847Z,4.10
2018-12-25T21:03:37.840Z,4.10
2018-12-25T21:06:33.295Z,4.00
2018-12-25T21:09:56.312Z,3.90
2018-12-25T21:12:51.433Z,3.80
2018-12-25T21:15:51.838Z,3.70
2018-12-25T21:18:59.854Z,3.70
2018-12-25T21:22:20.324Z,3.70
2018-12-25T21:25:26.077Z,3.80
2018-12-25T21:27:55.497Z,3.70
2018-12-25T21:30:25.980Z,3.70
2018-12-25T21:32:55.857Z,3.60
2018-12-25T21:35:26.329Z,3.50
2018-12-25T21:37:57.361Z,3.60
2018-12-25T21:40:27.758Z,3.50
2018-12-25T21:42:58.242Z,3.50
2018-12-25T21:45:28.073Z,3.40
2018-12-25T21:47:57.860Z,3.30
2018-12-25T21:50:27.934Z,3.30
2018-12-25T21:52:58.442Z,3.20
2018-12-25T21:55:28.834Z,3.20
2018-12-25T21:57:59.247Z,3.10
2018-12-25T22:00:32.413Z,3.10
2018-12-25T22:03:02.844Z,3.00
2018-12-25T22:05:33.199Z,2.90
2018-12-25T22:08:03.100Z,2.90
2018-12-25T22:10:33.962Z,2.80
2018-12-25T22:13:03.931Z,2.80
2018-12-25T22:15:33.774Z,2.80
2018-12-25T22:18:03.849Z,2.80
2018-12-25T22:20:36.132Z,2.80
2018-12-25T22:23:06.142Z,2.70
2018-12-25T22:25:36.249Z,2.70
2018-12-25T22:28:06.061Z,2.70
2018-12-25T22:30:35.847Z,2.60
2018-12-25T22:33:05.795Z,2.50
2018-12-25T22:35:35.505Z,2.60
2018-12-25T22:38:05.421Z,2.50
2018-12-25T22:40:35.116Z,2.50
2018-12-25T22:43:04.905Z,2.50
2018-12-25T22:45:34.665Z,2.50
2018-12-25T22:48:04.570Z,2.50
2018-12-25T22:50:34.487Z,2.40
2018-12-25T22:53:04.432Z,2.40
2018-12-25T22:55:35.880Z,2.40
2018-12-25T22:58:05.715Z,2.40
2018-12-25T23:00:35.499Z,2.40
2018-12-25T23:03:04.709Z,2.30
2018-12-25T23:05:34.516Z,2.20
2018-12-25T23:08:04.389Z,2.10
2018-12-25T23:10:34.215Z,2.20
2018-12-25T23:13:04.129Z,2.20
2018-12-25T23:15:34.035Z,2.10
2018-12-25T23:18:03.743Z,2.10
2018-12-25T23:20:33.568Z,2.10
2018-12-25T23:23:03.282Z,2.10
2018-12-25T23:25:33.157Z,2.10
2018-12-25T23:28:03.821Z,2.10
2018-12-25T23:30:33.566Z,2.10
2018-12-25T23:33:03.383Z,2.10
2018-12-25T23:35:33.480Z,2.00
2018-12-25T23:38:03.357Z,2.00
2018-12-25T23:40:33.756Z,2.00
2018-12-25T23:43:03.941Z,2.00
2018-12-25T23:45:34.306Z,2.00
2018-12-25T23:48:04.326Z,1.90
2018-12-25T23:50:34.025Z,1.90
2018-12-25T23:53:04.875Z,1.90
2018-12-25T23:55:34.831Z,1.80
2018-12-25T23:58:05.177Z,1.80
